createdAt,value
2023-05-02T00:00:01.434Z,102010
2023-05-02T00:05:00.691Z,102000
2023-05-02T00:10:00.855Z,102000
2023-05-02T00:15:00.767Z,102010
2023-05-02T00:20:00.934Z,102010
2023-05-02T00:25:00.657Z,102010
2023-05-02T00:30:01.295Z,102010
2023-05-02T00:35:00.543Z,102010
2023-05-02T00:40:01.381Z,102010
2023-05-02T00:45:01.182Z,102010
2023-05-02T00:50:00.799Z,102010
2023-05-02T00:55:00.859Z,102000
2023-05-02T01:00:01.549Z,102000
2023-05-02T01:05:15.109Z,102000
2023-05-02T01:10:16.926Z,102010
2023-05-02T01:15:06.601Z,102000
2023-05-02T01:20:05.849Z,102010
2023-05-02T01:25:13.798Z,102010
2023-05-02T01:30:01.698Z,102020
2023-05-02T01:35:01.804Z,102030
2023-05-02T01:40:03.378Z,102020
2023-05-02T01:45:03.357Z,102030
2023-05-02T01:50:02.696Z,102030
2023-05-02T01:55:01.367Z,102050
2023-05-02T02:00:03.891Z,102050
2023-05-02T02:05:03.606Z,102050
2023-05-02T02:10:00.925Z,102050
2023-05-02T02:15:05.757Z,102070
2023-05-02T02:20:04.182Z,102070
2023-05-02T02:25:00.906Z,102080
2023-05-02T02:30:00.859Z,102080
2023-05-02T02:35:01.610Z,102090
2023-05-02T02:40:16.109Z,102090
2023-05-02T02:45:15.324Z,102090
2023-05-02T02:50:10.188Z,102100
2023-05-02T02:55:11.914Z,102110
2023-05-02T03:00:07.628Z,102110
2023-05-02T03:05:02.154Z,102110
2023-05-02T03:10:03.190Z,102120
2023-05-02T03:15:10.020Z,102120
2023-05-02T03:20:00.787Z,102130
2023-05-02T03:25:00.545Z,102140
2023-05-02T03:30:01.062Z,102150
2023-05-02T03:35:00.495Z,102160
2023-05-02T03:40:00.729Z,102160
2023-05-02T03:45:00.496Z,102160
2023-05-02T03:50:01.182Z,102170
2023-05-02T03:55:00.896Z,102180
2023-05-02T04:00:01.225Z,102180
2023-05-02T04:05:00.501Z,102180
2023-05-02T04:10:00.896Z,102190
2023-05-02T04:15:00.484Z,102200
2023-05-02T04:20:04.905Z,102210
2023-05-02T04:25:00.504Z,102210
2023-05-02T04:30:00.798Z,102220
2023-05-02T04:35:00.484Z,102220
2023-05-02T04:40:00.861Z,102230
2023-05-02T04:45:00.534Z,102240
2023-05-02T04:50:00.924Z,102240
2023-05-02T04:55:00.483Z,102250
2023-05-02T05:00:01.239Z,102260
2023-05-02T05:05:00.879Z,102270
2023-05-02T05:10:00.944Z,102280
2023-05-02T05:15:00.470Z,102280
2023-05-02T05:20:01.097Z,102290
2023-05-02T05:25:00.565Z,102300
2023-05-02T05:30:01.253Z,102300
2023-05-02T05:35:00.910Z,102310
2023-05-02T05:40:00.840Z,102320
2023-05-02T05:45:00.696Z,102330
2023-05-02T05:50:01.151Z,102330
2023-05-02T05:55:00.528Z,102330
2023-05-02T06:00:01.050Z,102340
2023-05-02T06:05:00.570Z,102350
2023-05-02T06:10:01.009Z,102360
2023-05-02T06:15:00.489Z,102370
2023-05-02T06:20:00.849Z,102380
2023-05-02T06:25:00.808Z,102390
2023-05-02T06:30:00.893Z,102400
2023-05-02T06:35:00.523Z,102410
2023-05-02T06:40:01.426Z,102420
2023-05-02T06:45:00.502Z,102420
2023-05-02T06:50:00.909Z,102430
2023-05-02T06:55:00.475Z,102450
2023-05-02T07:00:01.133Z,102460
2023-05-02T07:05:00.541Z,102460
2023-05-02T07:10:00.966Z,102460
2023-05-02T07:15:00.540Z,102470
2023-05-02T07:20:00.770Z,102480
2023-05-02T07:25:01.611Z,102470
2023-05-02T07:30:00.841Z,102480
2023-05-02T07:35:00.481Z,102480
2023-05-02T07:40:01.261Z,102480
2023-05-02T07:45:00.918Z,102490
2023-05-02T07:50:01.419Z,102510
2023-05-02T07:55:00.513Z,102510
2023-05-02T08:00:01.415Z,102520
2023-05-02T08:05:00.511Z,102520
2023-05-02T08:10:00.835Z,102530
2023-05-02T08:15:04.089Z,102530
2023-05-02T08:20:00.772Z,102540
2023-05-02T08:25:00.525Z,102540
2023-05-02T08:30:01.207Z,102550
2023-05-02T08:35:00.487Z,102550
2023-05-02T08:40:00.721Z,102560
2023-05-02T08:45:01.089Z,102570
2023-05-02T08:50:01.012Z,102570
2023-05-02T08:55:02.482Z,102580
2023-05-02T09:00:01.033Z,102580
2023-05-02T09:05:06.074Z,102590
2023-05-02T09:10:00.956Z,102600
2023-05-02T09:15:08.060Z,102600
2023-05-02T09:20:00.575Z,102610
2023-05-02T09:25:00.873Z,102610
2023-05-02T09:30:17.306Z,102620
2023-05-02T09:35:04.534Z,102620
2023-05-02T09:40:08.257Z,102630
2023-05-02T09:45:00.923Z,102630
2023-05-02T09:50:00.528Z,102640
2023-05-02T09:55:00.821Z,102640
2023-05-02T10:00:00.928Z,102640
2023-05-02T10:05:02.577Z,102640
2023-05-02T10:10:01.396Z,102630
2023-05-02T10:15:03.322Z,102640
2023-05-02T10:20:03.570Z,102650
2023-05-02T10:25:02.855Z,102660
2023-05-02T10:30:00.576Z,102650
2023-05-02T10:35:05.786Z,102660
2023-05-02T10:40:01.202Z,102660
2023-05-02T10:45:00.809Z,102650
2023-05-02T10:50:02.370Z,102660
2023-05-02T10:55:18.805Z,102650
2023-05-02T11:00:19.877Z,102650
2023-05-02T11:05:02.371Z,102660
2023-05-02T11:10:17.971Z,102680
2023-05-02T11:15:01.660Z,102670
2023-05-02T11:20:00.489Z,102660
2023-05-02T11:25:00.927Z,102670
2023-05-02T11:30:02.068Z,102670
2023-05-02T11:35:01.192Z,102670
2023-05-02T11:40:11.066Z,102670
2023-05-02T11:45:00.901Z,102670
2023-05-02T11:50:03.827Z,102670
2023-05-02T11:55:00.856Z,102670
2023-05-02T12:00:01.184Z,102670
2023-05-02T12:05:02.793Z,102670
2023-05-02T12:10:00.504Z,102680
2023-05-02T12:15:03.819Z,102690
2023-05-02T12:20:02.928Z,102700
2023-05-02T12:25:01.385Z,102690
2023-05-02T12:30:00.818Z,102700
2023-05-02T12:35:02.210Z,102700
2023-05-02T12:40:01.104Z,102700
2023-05-02T12:45:00.498Z,102720
2023-05-02T12:50:00.628Z,102710
2023-05-02T12:55:18.442Z,102710
2023-05-02T13:00:02.886Z,102720
2023-05-02T13:05:00.510Z,102710
2023-05-02T13:10:01.044Z,102720
2023-05-02T13:15:00.547Z,102720
2023-05-02T13:20:02.411Z,102730
2023-05-02T13:25:00.499Z,102720
2023-05-02T13:30:00.956Z,102730
2023-05-02T13:35:00.509Z,102740
2023-05-02T13:40:00.871Z,102730
2023-05-02T13:45:00.465Z,102730
2023-05-02T13:50:00.827Z,102730
2023-05-02T13:55:00.506Z,102740
2023-05-02T14:00:01.366Z,102750
2023-05-02T14:05:00.588Z,102740
2023-05-02T14:10:01.047Z,102740
2023-05-02T14:15:00.547Z,102750
2023-05-02T14:20:00.874Z,102740
2023-05-02T14:25:00.627Z,102740
2023-05-02T14:30:01.081Z,102750
2023-05-02T14:35:00.499Z,102750
2023-05-02T14:40:00.731Z,102750
2023-05-02T14:45:00.545Z,102750
2023-05-02T14:50:02.438Z,102750
2023-05-02T14:55:01.300Z,102750
2023-05-02T15:00:03.234Z,102740
2023-05-02T15:05:00.918Z,102740
2023-05-02T15:10:00.831Z,102740
2023-05-02T15:15:00.478Z,102740
2023-05-02T15:20:00.673Z,102740
2023-05-02T15:25:01.236Z,102750
2023-05-02T15:30:00.801Z,102750
2023-05-02T15:35:00.472Z,102750
2023-05-02T15:40:00.915Z,102760
2023-05-02T15:45:00.520Z,102760
2023-05-02T15:50:00.864Z,102760
2023-05-02T15:55:00.574Z,102760
2023-05-02T16:00:01.148Z,102760
2023-05-02T16:05:00.490Z,102760
2023-05-02T16:10:01.093Z,102760
2023-05-02T16:15:01.897Z,102770
2023-05-02T16:20:00.790Z,102770
2023-05-02T16:25:00.516Z,102770
2023-05-02T16:30:00.695Z,102770
2023-05-02T16:35:00.470Z,102770
2023-05-02T16:40:01.214Z,102760
2023-05-02T16:45:00.735Z,102770
2023-05-02T16:50:00.877Z,102760
2023-05-02T16:55:00.559Z,102770
2023-05-02T17:00:02.529Z,102770
2023-05-02T17:05:00.486Z,102770
2023-05-02T17:10:00.720Z,102770
2023-05-02T17:15:02.178Z,102780
2023-05-02T17:20:00.875Z,102780
2023-05-02T17:25:00.697Z,102780
2023-05-02T17:30:01.017Z,102770
2023-05-02T17:35:00.481Z,102770
2023-05-02T17:40:00.763Z,102770
2023-05-02T17:45:00.536Z,102770
2023-05-02T17:50:00.940Z,102780
2023-05-02T17:55:00.800Z,102780
2023-05-02T18:00:01.522Z,102790
2023-05-02T18:05:00.745Z,102800
2023-05-02T18:10:00.763Z,102810
2023-05-02T18:15:01.133Z,102800
2023-05-02T18:20:00.988Z,102800
2023-05-02T18:25:00.764Z,102810
2023-05-02T18:30:00.459Z,102810
2023-05-02T18:35:01.023Z,102810
2023-05-02T18:40:00.522Z,102810
2023-05-02T18:45:01.266Z,102810
2023-05-02T18:50:00.469Z,102810
2023-05-02T18:55:01.214Z,102820
2023-05-02T19:00:01.183Z,102820
2023-05-02T19:05:03.839Z,102830
2023-05-02T19:10:00.539Z,102830
2023-05-02T19:15:00.946Z,102840
2023-05-02T19:20:00.516Z,102840
2023-05-02T19:25:00.762Z,102840
2023-05-02T19:30:00.515Z,102840
2023-05-02T19:35:01.374Z,102850
2023-05-02T19:40:00.522Z,102850
2023-05-02T19:45:00.684Z,102860
2023-05-02T19:50:00.504Z,102860
2023-05-02T19:55:00.832Z,102860
2023-05-02T20:00:01.262Z,102870
2023-05-02T20:05:00.521Z,102870
2023-05-02T20:10:00.827Z,102880
2023-05-02T20:15:00.574Z,102880
2023-05-02T20:20:00.693Z,102890
2023-05-02T20:25:00.636Z,102900
2023-05-02T20:30:00.684Z,102900
2023-05-02T20:35:00.792Z,102900
2023-05-02T20:40:00.848Z,102900
2023-05-02T20:45:01.345Z,102900
2023-05-02T20:50:00.614Z,102910
2023-05-02T20:55:00.536Z,102920
2023-05-02T21:00:01.479Z,102920
2023-05-02T21:05:00.479Z,102920
2023-05-02T21:10:01.153Z,102920
2023-05-02T21:15:00.484Z,102920
2023-05-02T21:20:00.753Z,102920
2023-05-02T21:25:00.568Z,102910
2023-05-02T21:30:01.031Z,102920
2023-05-02T21:35:01.215Z,102910
2023-05-02T21:40:00.888Z,102910
2023-05-02T21:45:00.776Z,102910
2023-05-02T21:50:00.962Z,102910
2023-05-02T21:55:00.526Z,102900
2023-05-02T22:00:01.371Z,102900
2023-05-02T22:05:00.528Z,102900
2023-05-02T22:10:00.812Z,102900
2023-05-02T22:15:00.518Z,102890
2023-05-02T22:20:01.186Z,102890
2023-05-02T22:25:00.558Z,102880
2023-05-02T22:30:01.069Z,102870
2023-05-02T22:35:00.667Z,102880
2023-05-02T22:40:00.669Z,102880
2023-05-02T22:45:00.579Z,102870
2023-05-02T22:50:00.849Z,102880
2023-05-02T22:55:00.482Z,102880
2023-05-02T23:00:01.437Z,102880
2023-05-02T23:05:01.219Z,102880
2023-05-02T23:10:00.857Z,102880
2023-05-02T23:15:00.471Z,102880
2023-05-02T23:20:00.805Z,102890
2023-05-02T23:25:00.518Z,102890
2023-05-02T23:30:00.959Z,102890
2023-05-02T23:35:00.657Z,102900
2023-05-02T23:40:00.759Z,102900
2023-05-02T23:45:00.860Z,102910
2023-05-02T23:50:00.953Z,102920
2023-05-02T23:55:00.512Z,102920
